createdAt,value
2022-09-05T00:02:30.788Z,76.01
2022-09-05T00:05:02.320Z,76.50
2022-09-05T00:07:58.979Z,75.03
2022-09-05T00:10:37.543Z,74.77
2022-09-05T00:13:25.046Z,74.34
2022-09-05T00:16:05.714Z,73.79
2022-09-05T00:24:17.725Z,73.72
2022-09-05T00:24:24.786Z,73.54
2022-09-05T00:27:57.563Z,74.05
2022-09-05T00:31:08.658Z,76.30
2022-09-05T00:33:26.081Z,75.86
2022-09-05T00:36:05.828Z,75.08
2022-09-05T00:38:36.500Z,74.58
2022-09-05T00:41:02.553Z,74.98
2022-09-05T00:43:31.824Z,74.47
2022-09-05T00:46:05.562Z,75.10
2022-09-05T00:48:29.762Z,75.48
2022-09-05T00:51:14.112Z,75.92
2022-09-05T00:53:46.722Z,77.28
2022-09-05T00:56:37.204Z,76.91
2022-09-05T00:59:26.718Z,77.27
2022-09-05T01:01:56.119Z,77.95
2022-09-05T01:04:56.355Z,76.54
2022-09-05T01:07:38.012Z,77.64
2022-09-05T01:10:04.290Z,78.30
2022-09-05T01:12:48.534Z,76.99
2022-09-05T01:15:25.524Z,76.33
2022-09-05T01:17:57.319Z,76.17
2022-09-05T01:20:31.506Z,76.29
2022-09-05T01:23:09.637Z,76.48
2022-09-05T01:25:36.831Z,76.64
2022-09-05T01:29:13.680Z,77.02
2022-09-05T01:31:22.731Z,76.15
2022-09-05T01:33:46.919Z,76.11
2022-09-05T01:36:24.218Z,75.48
2022-09-05T01:40:11.659Z,75.53
2022-09-05T01:42:06.076Z,76.16
2022-09-05T01:45:09.910Z,77.98
2022-09-05T01:47:50.203Z,77.21
2022-09-05T01:50:53.820Z,76.42
2022-09-05T01:53:48.280Z,76.64
2022-09-05T01:56:30.160Z,79.70
2022-09-05T01:58:58.384Z,78.36
2022-09-05T02:01:36.208Z,78.79
2022-09-05T02:04:19.675Z,79.89
2022-09-05T02:07:15.245Z,78.20
2022-09-05T02:10:07.584Z,77.97
2022-09-05T02:13:02.590Z,81.52
2022-09-05T02:15:59.337Z,79.75
2022-09-05T02:18:30.951Z,80.24
2022-09-05T02:20:58.869Z,79.83
2022-09-05T02:23:42.612Z,78.25
2022-09-05T02:26:19.147Z,78.06
2022-09-05T02:29:00.052Z,78.13
2022-09-05T02:31:27.622Z,77.72
2022-09-05T02:34:01.874Z,77.47
2022-09-05T02:36:49.794Z,77.18
2022-09-05T02:45:06.538Z,78.72
2022-09-05T02:45:06.887Z,78.33
2022-09-05T02:45:40.693Z,78.55
2022-09-05T02:48:16.427Z,78.11
2022-09-05T02:57:25.491Z,77.59
2022-09-05T02:57:39.467Z,78.41
2022-09-05T02:57:42.486Z,78.38
2022-09-05T03:00:11.679Z,77.81
2022-09-05T03:02:54.020Z,80.39
2022-09-05T03:05:41.509Z,79.97
2022-09-05T03:08:22.727Z,78.91
2022-09-05T03:10:54.282Z,78.38
2022-09-05T03:13:57.686Z,77.81
2022-09-05T03:16:44.967Z,77.35
2022-09-05T03:19:31.079Z,79.02
2022-09-05T03:22:08.091Z,80.17
2022-09-05T03:25:12.819Z,78.75
2022-09-05T03:28:13.074Z,78.27
2022-09-05T03:30:45.200Z,78.35
2022-09-05T03:33:40.887Z,77.87
2022-09-05T03:36:27.242Z,77.65
2022-09-05T03:39:02.781Z,77.76
2022-09-05T03:42:01.920Z,78.32
2022-09-05T03:44:57.544Z,78.05
2022-09-05T03:47:45.649Z,78.42
2022-09-05T03:57:04.464Z,79.69
2022-09-05T03:57:21.026Z,78.43
2022-09-05T03:57:25.711Z,78.49
2022-09-05T03:59:09.591Z,78.49
2022-09-05T04:02:22.382Z,78.96
2022-09-05T04:08:14.567Z,79.80
2022-09-05T04:08:26.241Z,79.58
2022-09-05T04:10:32.670Z,80.10
2022-09-05T04:13:17.259Z,78.96
2022-09-05T04:15:45.424Z,79.55
2022-09-05T04:18:32.875Z,79.42
2022-09-05T04:21:20.044Z,80.63
2022-09-05T04:23:50.138Z,79.84
2022-09-05T04:26:39.268Z,79.47
2022-09-05T04:29:26.608Z,80.25
2022-09-05T04:32:15.416Z,82.91
2022-09-05T04:34:51.071Z,80.94
2022-09-05T04:37:37.150Z,81.99
2022-09-05T04:40:34.321Z,84.66
2022-09-05T04:43:00.319Z,83.04
2022-09-05T04:45:24.414Z,83.33
2022-09-05T04:47:52.369Z,82.54
2022-09-05T04:50:20.253Z,82.54
2022-09-05T04:53:16.023Z,81.69
2022-09-05T04:55:50.767Z,80.76
2022-09-05T04:58:29.537Z,80.93
2022-09-05T05:06:04.495Z,80.35
2022-09-05T05:06:19.945Z,81.55
2022-09-05T05:07:10.929Z,82.78
2022-09-05T05:09:44.508Z,81.52
2022-09-05T05:17:56.297Z,81.33
2022-09-05T05:18:08.632Z,82.33
2022-09-05T05:18:39.577Z,82.35
2022-09-05T05:21:00.120Z,82.45
2022-09-05T05:23:39.223Z,81.82
2022-09-05T05:26:04.724Z,81.18
2022-09-05T05:28:46.805Z,80.85
2022-09-05T05:31:12.945Z,80.91
2022-09-05T05:33:38.852Z,81.28
2022-09-05T05:36:03.080Z,81.71
2022-09-05T05:38:32.975Z,81.57
2022-09-05T05:41:09.826Z,81.50
2022-09-05T05:43:45.516Z,82.33
2022-09-05T05:46:12.722Z,82.78
2022-09-05T05:48:38.223Z,83.56
2022-09-05T05:52:00.958Z,82.43
2022-09-05T05:54:42.288Z,82.41
2022-09-05T05:57:32.980Z,81.08
2022-09-05T06:00:04.054Z,81.65
2022-09-05T06:03:24.830Z,82.94
2022-09-05T06:06:08.652Z,81.16
2022-09-05T06:14:26.134Z,81.46
2022-09-05T06:15:01.458Z,80.29
2022-09-05T06:15:10.453Z,80.75
2022-09-05T06:18:07.231Z,80.24
2022-09-05T06:22:06.056Z,80.14
2022-09-05T06:24:07.243Z,79.67
2022-09-05T06:26:51.178Z,79.51
2022-09-05T06:29:48.875Z,79.12
2022-09-05T06:32:58.229Z,79.49
2022-09-05T06:35:41.517Z,79.33
2022-09-05T06:38:34.391Z,79.13
2022-09-05T06:41:20.431Z,80.00
2022-09-05T06:43:57.149Z,79.56
2022-09-05T06:47:23.039Z,80.18
2022-09-05T06:49:38.725Z,80.96
2022-09-05T06:52:29.557Z,80.07
2022-09-05T06:55:37.602Z,80.33
2022-09-05T06:58:14.124Z,80.26
2022-09-05T07:00:47.832Z,80.98
2022-09-05T07:03:27.761Z,82.84
2022-09-05T07:06:04.629Z,82.01
2022-09-05T07:08:37.453Z,81.56
2022-09-05T07:11:15.968Z,82.48
2022-09-05T07:14:00.680Z,83.37
2022-09-05T07:16:37.322Z,83.03
2022-09-05T07:19:14.216Z,82.54
2022-09-05T07:21:49.335Z,84.47
2022-09-05T07:24:39.115Z,84.84
2022-09-05T07:27:00.635Z,83.81
2022-09-05T07:29:32.145Z,83.49
2022-09-05T07:31:55.919Z,82.72
2022-09-05T07:34:22.926Z,82.27
2022-09-05T07:36:48.318Z,81.96
2022-09-05T07:39:28.244Z,81.93
2022-09-05T07:41:54.626Z,81.66
2022-09-05T07:44:23.589Z,81.28
2022-09-05T07:46:48.990Z,82.91
2022-09-05T07:49:18.512Z,82.08
2022-09-05T07:56:49.663Z,82.71
2022-09-05T07:57:00.081Z,82.05
2022-09-05T07:57:30.829Z,82.56
2022-09-05T07:59:57.777Z,81.73
2022-09-05T08:02:19.437Z,81.40
2022-09-05T08:04:42.075Z,82.05
2022-09-05T08:07:50.035Z,80.30
2022-09-05T08:10:08.406Z,80.13
2022-09-05T08:13:22.838Z,79.66
2022-09-05T08:15:42.579Z,78.94
2022-09-05T08:18:42.821Z,78.02
2022-09-05T08:21:29.860Z,78.36
2022-09-05T08:24:09.142Z,76.13
2022-09-05T08:26:46.362Z,74.31
2022-09-05T08:29:27.142Z,74.26
2022-09-05T08:31:53.321Z,74.37
2022-09-05T08:34:44.106Z,73.05
2022-09-05T08:37:10.120Z,70.71
2022-09-05T08:39:34.596Z,71.84
2022-09-05T08:42:06.122Z,70.06
2022-09-05T08:46:41.710Z,68.09
2022-09-05T08:47:52.979Z,67.40
2022-09-05T08:50:43.716Z,66.94
2022-09-05T08:53:45.440Z,65.93
2022-09-05T08:56:20.660Z,64.99
2022-09-05T08:58:54.035Z,64.81
2022-09-05T09:02:37.441Z,63.00
2022-09-05T09:05:14.599Z,61.39
2022-09-05T09:07:52.522Z,60.46
2022-09-05T09:10:30.040Z,59.82
2022-09-05T09:13:19.094Z,59.65
2022-09-05T09:15:58.853Z,59.63
2022-09-05T09:18:21.434Z,58.84
2022-09-05T09:20:53.993Z,56.92
2022-09-05T09:23:51.171Z,55.06
2022-09-05T09:26:19.095Z,53.59
2022-09-05T09:28:52.532Z,52.95
2022-09-05T09:31:13.974Z,52.05
2022-09-05T09:33:46.301Z,51.89
2022-09-05T09:36:48.971Z,50.86
2022-09-05T09:39:47.821Z,49.43
2022-09-05T09:42:40.705Z,49.17
2022-09-05T09:45:31.440Z,49.25
2022-09-05T09:48:07.929Z,48.37
2022-09-05T09:51:08.522Z,47.73
2022-09-05T09:53:42.862Z,47.34
2022-09-05T09:56:16.251Z,47.99
2022-09-05T09:58:56.642Z,48.46
2022-09-05T10:01:50.482Z,48.72
2022-09-05T10:10:39.008Z,48.41
2022-09-05T10:10:53.339Z,48.10
2022-09-05T10:11:07.714Z,47.75
2022-09-05T10:13:57.748Z,47.75
2022-09-05T10:16:49.589Z,46.71
2022-09-05T10:20:11.550Z,47.13
2022-09-05T10:22:51.598Z,46.13
2022-09-05T10:25:19.985Z,44.96
2022-09-05T10:28:04.551Z,45.40
2022-09-05T10:32:58.075Z,43.72
2022-09-05T10:35:16.998Z,43.96
2022-09-05T10:36:24.578Z,43.30
2022-09-05T10:38:53.467Z,42.89
2022-09-05T10:41:22.151Z,42.50
2022-09-05T10:44:03.192Z,40.58
2022-09-05T10:47:24.677Z,39.01
2022-09-05T10:49:50.546Z,39.08
2022-09-05T10:52:30.613Z,37.22
2022-09-05T10:55:02.556Z,35.35
2022-09-05T10:57:41.621Z,34.17
2022-09-05T11:02:30.158Z,34.40
2022-09-05T11:03:30.156Z,34.85
2022-09-05T11:05:58.712Z,35.55
2022-09-05T11:08:33.199Z,36.34
2022-09-05T11:11:26.027Z,36.08
2022-09-05T11:13:57.417Z,35.21
2022-09-05T11:16:43.351Z,34.83
2022-09-05T11:19:11.694Z,34.11
2022-09-05T11:21:52.654Z,36.13
2022-09-05T11:24:43.138Z,36.85
2022-09-05T11:27:27.319Z,37.21
2022-09-05T11:29:57.210Z,36.60
2022-09-05T11:37:35.804Z,36.38
2022-09-05T11:39:50.726Z,35.72
2022-09-05T11:39:59.919Z,35.96
2022-09-05T11:41:48.716Z,35.49
2022-09-05T11:44:35.711Z,35.77
2022-09-05T11:47:28.241Z,35.82
2022-09-05T11:50:11.254Z,34.59
2022-09-05T11:52:55.092Z,34.19
2022-09-05T11:55:40.134Z,33.66
2022-09-05T11:58:43.144Z,33.21
2022-09-05T12:01:41.544Z,32.98
2022-09-05T12:04:21.849Z,33.27
2022-09-05T12:07:02.445Z,33.36
2022-09-05T12:09:46.727Z,33.92
2022-09-05T12:12:41.147Z,33.09
2022-09-05T12:15:11.551Z,33.04
2022-09-05T12:17:53.127Z,32.68
2022-09-05T12:20:53.057Z,31.79
2022-09-05T12:24:24.176Z,30.27
2022-09-05T12:27:36.927Z,30.85
2022-09-05T12:29:29.001Z,30.59
2022-09-05T12:32:50.430Z,29.42
2022-09-05T12:36:10.396Z,29.19
2022-09-05T12:40:54.043Z,30.23
2022-09-05T12:41:35.674Z,27.34
2022-09-05T12:44:38.151Z,26.94
2022-09-05T12:46:25.150Z,25.39
2022-09-05T12:48:56.852Z,24.45
2022-09-05T12:51:45.840Z,22.56
2022-09-05T12:54:27.864Z,22.48
2022-09-05T13:00:49.523Z,20.81
2022-09-05T13:03:13.668Z,20.07
2022-09-05T13:03:27.738Z,20.83
2022-09-05T13:06:04.849Z,20.52
2022-09-05T13:08:38.053Z,20.97
2022-09-05T13:14:48.857Z,21.38
2022-09-05T13:15:07.960Z,20.57
2022-09-05T13:16:39.736Z,20.72
2022-09-05T13:19:07.502Z,22.04
2022-09-05T13:21:30.984Z,23.31
2022-09-05T13:24:16.484Z,23.15
2022-09-05T13:26:47.643Z,23.22
2022-09-05T13:29:19.714Z,22.21
2022-09-05T13:37:55.563Z,21.89
2022-09-05T13:37:58.802Z,21.38
2022-09-05T13:38:03.245Z,21.14
2022-09-05T13:40:19.777Z,21.40
2022-09-05T13:42:45.301Z,22.28
2022-09-05T13:45:09.019Z,23.23
2022-09-05T13:47:54.387Z,23.89
2022-09-05T13:50:29.210Z,24.29
2022-09-05T13:53:16.666Z,25.07
2022-09-05T13:55:43.208Z,24.83
2022-09-05T13:58:13.786Z,25.55
2022-09-05T14:00:38.262Z,25.32
2022-09-05T14:03:39.101Z,27.06
2022-09-05T14:07:44.068Z,27.92
2022-09-05T14:10:31.172Z,27.41
2022-09-05T14:13:05.711Z,27.90
2022-09-05T14:15:52.370Z,27.73
2022-09-05T14:18:53.878Z,27.65
2022-09-05T14:21:15.731Z,28.26
2022-09-05T14:23:45.833Z,29.07
2022-09-05T14:26:17.726Z,27.76
2022-09-05T14:28:46.732Z,26.98
2022-09-05T14:37:07.065Z,26.27
2022-09-05T14:37:52.712Z,23.85
2022-09-05T14:38:00.978Z,24.75
2022-09-05T14:40:39.360Z,23.25
2022-09-05T14:43:15.157Z,23.11
2022-09-05T14:46:03.733Z,23.12
2022-09-05T14:48:46.587Z,24.29
2022-09-05T14:51:43.256Z,24.48
2022-09-05T15:00:55.096Z,25.74
2022-09-05T15:02:51.036Z,26.54
2022-09-05T15:03:02.013Z,26.63
2022-09-05T15:05:27.844Z,26.08
2022-09-05T15:07:58.621Z,25.65
2022-09-05T15:12:17.096Z,26.67
2022-09-05T15:13:06.484Z,26.90
2022-09-05T15:15:40.565Z,25.89
2022-09-05T15:18:31.517Z,25.75
2022-09-05T15:21:16.761Z,25.43
2022-09-05T15:24:24.311Z,25.15
2022-09-05T15:27:01.122Z,25.13
2022-09-05T15:29:25.838Z,23.98
2022-09-05T15:31:47.384Z,23.81
2022-09-05T15:34:26.284Z,23.25
2022-09-05T15:36:48.120Z,22.94
2022-09-05T15:39:24.583Z,22.82
2022-09-05T15:41:46.520Z,22.50
2022-09-05T15:44:21.304Z,23.03
2022-09-05T15:46:59.748Z,22.70
2022-09-05T15:49:42.968Z,22.60
2022-09-05T15:52:16.484Z,23.10
2022-09-05T15:54:49.502Z,22.55
2022-09-05T15:57:21.159Z,22.64
2022-09-05T15:59:48.965Z,22.49
2022-09-05T16:02:17.543Z,22.38
2022-09-05T16:10:27.220Z,22.05
2022-09-05T16:10:38.140Z,22.95
2022-09-05T16:10:40.973Z,23.23
2022-09-05T16:12:57.093Z,23.18
2022-09-05T16:18:42.661Z,23.80
2022-09-05T16:23:15.561Z,24.13
2022-09-05T16:23:32.256Z,24.71
2022-09-05T16:24:06.650Z,25.01
2022-09-05T16:26:31.967Z,24.83
2022-09-05T16:29:10.338Z,25.38
2022-09-05T16:31:45.268Z,25.60
2022-09-05T16:34:16.508Z,25.90
2022-09-05T16:36:57.950Z,26.05
2022-09-05T16:39:33.683Z,26.54
2022-09-05T16:42:02.309Z,26.88
2022-09-05T16:44:35.549Z,26.99
2022-09-05T16:47:29.762Z,27.38
2022-09-05T16:50:16.946Z,28.60
2022-09-05T16:53:34.629Z,29.04
2022-09-05T16:56:04.308Z,30.12
2022-09-05T16:58:38.720Z,29.92
2022-09-05T17:01:20.277Z,30.19
2022-09-05T17:03:56.037Z,30.39
2022-09-05T17:06:45.580Z,30.79
2022-09-05T17:09:20.504Z,31.50
2022-09-05T17:12:00.566Z,31.94
2022-09-05T17:14:25.336Z,32.71
2022-09-05T17:16:56.347Z,32.44
2022-09-05T17:19:22.843Z,32.35
2022-09-05T17:24:23.018Z,33.43
2022-09-05T17:29:31.261Z,33.47
2022-09-05T17:29:34.489Z,34.13
2022-09-05T17:31:49.041Z,35.09
2022-09-05T17:33:23.823Z,34.99
2022-09-05T17:35:48.087Z,35.44
2022-09-05T17:38:33.538Z,36.18
2022-09-05T17:41:17.002Z,36.55
2022-09-05T17:43:40.098Z,36.89
2022-09-05T17:46:26.102Z,36.74
2022-09-05T17:48:54.876Z,36.79
2022-09-05T17:51:28.837Z,36.84
2022-09-05T17:53:59.353Z,36.93
2022-09-05T17:56:32.402Z,37.29
2022-09-05T17:59:21.348Z,37.36
2022-09-05T18:02:02.959Z,37.37
2022-09-05T18:04:43.096Z,37.77
2022-09-05T18:07:27.079Z,37.93
2022-09-05T18:13:31.755Z,38.39
2022-09-05T18:15:35.021Z,38.56
2022-09-05T18:18:05.865Z,38.75
2022-09-05T18:20:45.643Z,39.25
2022-09-05T18:23:26.338Z,39.31
2022-09-05T18:26:14.304Z,39.42
2022-09-05T18:28:59.946Z,39.81
2022-09-05T18:31:41.475Z,40.28
2022-09-05T18:34:13.654Z,40.52
2022-09-05T18:36:35.255Z,40.60
2022-09-05T18:39:27.698Z,40.89
2022-09-05T18:42:33.924Z,40.99
2022-09-05T18:44:49.904Z,41.47
2022-09-05T18:47:33.267Z,41.13
2022-09-05T18:50:24.138Z,41.97
2022-09-05T18:52:47.267Z,42.32
2022-09-05T18:56:10.481Z,42.34
2022-09-05T18:58:11.405Z,43.04
2022-09-05T19:00:46.804Z,43.83
2022-09-05T19:03:18.988Z,44.63
2022-09-05T19:05:55.338Z,44.35
2022-09-05T19:08:48.076Z,45.24
2022-09-05T19:11:28.245Z,45.41
2022-09-05T19:14:16.219Z,45.83
2022-09-05T19:16:43.542Z,46.82
2022-09-05T19:19:16.440Z,46.36
2022-09-05T19:21:57.247Z,47.17
2022-09-05T19:24:45.687Z,46.67
2022-09-05T19:27:07.609Z,47.75
2022-09-05T19:35:57.131Z,48.41
2022-09-05T19:36:54.260Z,48.27
2022-09-05T19:37:06.991Z,49.58
2022-09-05T19:37:58.576Z,49.62
2022-09-05T19:47:26.850Z,50.25
2022-09-05T19:47:36.396Z,49.89
2022-09-05T19:47:37.699Z,50.22
2022-09-05T19:49:07.717Z,49.11
2022-09-05T19:51:29.302Z,49.52
2022-09-05T19:54:04.002Z,48.96
2022-09-05T19:56:46.149Z,48.61
2022-09-05T19:59:24.825Z,48.86
2022-09-05T20:01:47.508Z,49.09
2022-09-05T20:04:09.292Z,48.96
2022-09-05T20:06:31.302Z,50.07
2022-09-05T20:09:20.520Z,49.35
2022-09-05T20:11:57.837Z,49.88
2022-09-05T20:14:26.915Z,50.28
2022-09-05T20:16:50.575Z,50.08
2022-09-05T20:19:29.371Z,49.70
2022-09-05T20:21:54.952Z,50.42
2022-09-05T20:24:19.961Z,50.26
2022-09-05T20:26:41.724Z,50.42
2022-09-05T20:29:09.089Z,50.20
2022-09-05T20:31:33.683Z,50.20
2022-09-05T20:35:36.482Z,50.05
2022-09-05T20:43:15.900Z,51.55
2022-09-05T20:43:16.951Z,50.22
2022-09-05T20:43:30.695Z,50.75
2022-09-05T20:47:12.247Z,53.04
2022-09-05T20:54:04.875Z,51.89
2022-09-05T20:54:12.794Z,52.90
2022-09-05T20:54:31.044Z,54.33
2022-09-05T20:56:56.803Z,53.17
2022-09-05T20:59:25.038Z,52.87
2022-09-05T21:02:07.140Z,54.60
2022-09-05T21:04:34.200Z,53.33
2022-09-05T21:07:10.756Z,52.88
2022-09-05T21:09:32.351Z,52.75
2022-09-05T21:11:56.326Z,53.19
2022-09-05T21:14:22.563Z,53.48
2022-09-05T21:16:47.585Z,54.23
2022-09-05T21:19:41.532Z,54.36
2022-09-05T21:22:28.626Z,55.10
2022-09-05T21:25:14.917Z,54.64
2022-09-05T21:27:36.352Z,54.72
2022-09-05T21:30:30.648Z,54.05
2022-09-05T21:32:54.956Z,54.87
2022-09-05T21:35:34.230Z,55.39
2022-09-05T21:37:58.644Z,56.31
2022-09-05T21:40:21.279Z,55.59
2022-09-05T21:47:33.029Z,55.62
2022-09-05T21:47:48.296Z,55.71
2022-09-05T21:48:11.070Z,56.41
2022-09-05T21:50:37.667Z,56.39
2022-09-05T21:53:32.487Z,56.46
2022-09-05T22:03:20.730Z,59.02
2022-09-05T22:05:42.204Z,58.54
2022-09-05T22:08:06.116Z,58.16
2022-09-05T22:10:35.683Z,58.10
2022-09-05T22:13:09.192Z,61.41
2022-09-05T22:15:32.193Z,59.71
2022-09-05T22:17:58.381Z,59.32
2022-09-05T22:20:39.280Z,59.65
2022-09-05T22:23:01.527Z,59.32
2022-09-05T22:25:29.947Z,59.27
2022-09-05T22:27:51.379Z,60.90
2022-09-05T22:30:13.621Z,59.90
2022-09-05T22:32:35.627Z,59.54
2022-09-05T22:34:57.072Z,59.64
2022-09-05T22:37:18.695Z,60.61
2022-09-05T22:39:41.141Z,60.00
2022-09-05T22:42:02.677Z,59.84
2022-09-05T22:44:29.137Z,62.29
2022-09-05T22:46:53.001Z,62.04
2022-09-05T22:49:14.489Z,61.36
2022-09-05T22:51:35.931Z,61.24
2022-09-05T22:53:57.445Z,61.51
2022-09-05T22:56:36.837Z,61.37
2022-09-05T22:58:58.370Z,63.41
2022-09-05T23:01:19.902Z,62.38
2022-09-05T23:03:41.368Z,62.28
2022-09-05T23:06:10.403Z,61.67
2022-09-05T23:08:32.111Z,61.85
2022-09-05T23:10:53.616Z,61.41
2022-09-05T23:13:15.124Z,61.65
2022-09-05T23:15:37.648Z,61.82
2022-09-05T23:18:00.190Z,61.64
2022-09-05T23:20:22.380Z,63.22
2022-09-05T23:22:43.831Z,62.49
2022-09-05T23:25:05.646Z,62.35
2022-09-05T23:27:27.091Z,63.27
2022-09-05T23:29:48.547Z,65.61
2022-09-05T23:32:09.983Z,65.34
2022-09-05T23:34:33.174Z,66.74
2022-09-05T23:36:54.705Z,66.46
2022-09-05T23:39:16.245Z,65.12
2022-09-05T23:41:37.678Z,64.53
2022-09-05T23:43:59.187Z,64.58
2022-09-05T23:46:20.667Z,64.27
2022-09-05T23:48:42.165Z,64.77
2022-09-05T23:51:09.271Z,67.59
2022-09-05T23:53:30.773Z,66.34
2022-09-05T23:55:52.192Z,65.64
2022-09-05T23:58:14.279Z,67.45
